sensor_id;sensor_type;location;lat;lon;timestamp;pressure;altitude;pressure_sealevel;temperature;humidity
22241;BME280;11289;52.524;13.694;2023-05-12T00:00:04;101137.25;;;15.92;46.05
22241;BME280;11289;52.524;13.694;2023-05-12T00:02:32;101128.88;;;15.79;46.12
22241;BME280;11289;52.524;13.694;2023-05-12T00:04:58;101126.41;;;15.78;45.73
22241;BME280;11289;52.524;13.694;2023-05-12T00:07:24;101122.03;;;15.64;45.88
22241;BME280;11289;52.524;13.694;2023-05-12T00:09:50;101110.03;;;15.52;46.37
22241;BME280;11289;52.524;13.694;2023-05-12T00:12:16;101113.53;;;15.48;46.56
22241;BME280;11289;52.524;13.694;2023-05-12T00:14:42;101126.81;;;15.52;46.64
22241;BME280;11289;52.524;13.694;2023-05-12T00:17:08;101113.19;;;15.38;46.59
22241;BME280;11289;52.524;13.694;2023-05-12T00:19:34;101133.94;;;15.49;46.51
22241;BME280;11289;52.524;13.694;2023-05-12T00:22:01;101112.75;;;15.36;46.41
22241;BME280;11289;52.524;13.694;2023-05-12T00:24:27;101117.53;;;15.35;46.59
22241;BME280;11289;52.524;13.694;2023-05-12T00:26:55;101124.38;;;15.38;46.56
22241;BME280;11289;52.524;13.694;2023-05-12T00:29:21;101118.34;;;15.36;46.75
22241;BME280;11289;52.524;13.694;2023-05-12T00:31:47;101136.72;;;15.49;46.64
22241;BME280;11289;52.524;13.694;2023-05-12T00:34:13;101115.41;;;15.32;46.57
22241;BME280;11289;52.524;13.694;2023-05-12T00:36:39;101108.78;;;15.24;46.52
22241;BME280;11289;52.524;13.694;2023-05-12T00:39:05;101118.00;;;15.12;46.59
22241;BME280;11289;52.524;13.694;2023-05-12T00:41:31;101124.97;;;15.19;47.00
22241;BME280;11289;52.524;13.694;2023-05-12T00:43:57;101108.66;;;15.08;47.03
22241;BME280;11289;52.524;13.694;2023-05-12T00:46:23;101106.81;;;15.12;46.93
22241;BME280;11289;52.524;13.694;2023-05-12T00:48:50;101131.75;;;15.18;46.85
22241;BME280;11289;52.524;13.694;2023-05-12T00:51:16;101141.41;;;15.20;46.89
22241;BME280;11289;52.524;13.694;2023-05-12T00:53:42;101128.72;;;15.10;46.97
22241;BME280;11289;52.524;13.694;2023-05-12T00:56:10;101129.28;;;15.04;46.94
22241;BME280;11289;52.524;13.694;2023-05-12T00:58:36;101124.97;;;14.94;47.11
22241;BME280;11289;52.524;13.694;2023-05-12T01:01:02;101117.63;;;14.89;47.07
22241;BME280;11289;52.524;13.694;2023-05-12T01:03:28;101125.56;;;14.87;47.06
22241;BME280;11289;52.524;13.694;2023-05-12T01:06:05;101145.47;;;14.98;47.30
22241;BME280;11289;52.524;13.694;2023-05-12T01:08:33;101148.63;;;14.96;47.37
22241;BME280;11289;52.524;13.694;2023-05-12T01:10:59;101119.13;;;14.74;47.68
22241;BME280;11289;52.524;13.694;2023-05-12T01:13:26;101136.59;;;14.84;47.71
22241;BME280;11289;52.524;13.694;2023-05-12T01:15:53;101134.50;;;14.80;47.62
22241;BME280;11289;52.524;13.694;2023-05-12T01:18:21;101131.13;;;14.75;47.50
22241;BME280;11289;52.524;13.694;2023-05-12T01:20:49;101145.59;;;14.77;47.66
22241;BME280;11289;52.524;13.694;2023-05-12T01:23:18;101130.78;;;14.64;47.73
22241;BME280;11289;52.524;13.694;2023-05-12T01:25:45;101142.88;;;14.68;47.73
22241;BME280;11289;52.524;13.694;2023-05-12T01:28:14;101154.72;;;14.65;47.91
22241;BME280;11289;52.524;13.694;2023-05-12T01:30:41;101155.56;;;14.66;47.98
22241;BME280;11289;52.524;13.694;2023-05-12T01:33:09;101146.56;;;14.60;48.14
22241;BME280;11289;52.524;13.694;2023-05-12T01:35:35;101131.19;;;14.54;48.29
22241;BME280;11289;52.524;13.694;2023-05-12T01:38:01;101137.44;;;14.51;48.11
22241;BME280;11289;52.524;13.694;2023-05-12T01:40:27;101129.75;;;14.48;48.16
22241;BME280;11289;52.524;13.694;2023-05-12T01:42:53;101150.41;;;14.55;48.02
22241;BME280;11289;52.524;13.694;2023-05-12T01:45:19;101135.81;;;14.50;48.23
22241;BME280;11289;52.524;13.694;2023-05-12T01:47:45;101136.38;;;14.43;48.18
22241;BME280;11289;52.524;13.694;2023-05-12T01:50:11;101149.53;;;14.42;48.41
22241;BME280;11289;52.524;13.694;2023-05-12T01:52:37;101129.81;;;14.26;48.31
22241;BME280;11289;52.524;13.694;2023-05-12T01:55:03;101151.81;;;14.28;48.67
22241;BME280;11289;52.524;13.694;2023-05-12T01:57:32;101158.44;;;14.23;48.95
22241;BME280;11289;52.524;13.694;2023-05-12T01:59:58;101128.34;;;14.08;48.95
22241;BME280;11289;52.524;13.694;2023-05-12T02:02:24;101140.81;;;14.10;48.98
22241;BME280;11289;52.524;13.694;2023-05-12T02:04:50;101141.00;;;14.05;48.98
22241;BME280;11289;52.524;13.694;2023-05-12T02:07:16;101143.44;;;14.07;48.96
22241;BME280;11289;52.524;13.694;2023-05-12T02:09:42;101138.56;;;14.04;49.21
22241;BME280;11289;52.524;13.694;2023-05-12T02:12:08;101141.28;;;13.91;49.13
22241;BME280;11289;52.524;13.694;2023-05-12T02:14:34;101153.53;;;13.99;49.46
22241;BME280;11289;52.524;13.694;2023-05-12T02:17:00;101158.50;;;13.93;49.30
22241;BME280;11289;52.524;13.694;2023-05-12T02:19:27;101152.19;;;13.84;49.56
22241;BME280;11289;52.524;13.694;2023-05-12T02:21:53;101157.28;;;13.82;49.61
22241;BME280;11289;52.524;13.694;2023-05-12T02:24:19;101151.41;;;13.75;49.75
22241;BME280;11289;52.524;13.694;2023-05-12T02:26:46;101149.66;;;13.70;49.89
22241;BME280;11289;52.524;13.694;2023-05-12T02:29:11;101163.94;;;13.69;49.90
22241;BME280;11289;52.524;13.694;2023-05-12T02:31:37;101168.72;;;13.68;49.99
22241;BME280;11289;52.524;13.694;2023-05-12T02:34:03;101162.84;;;13.61;50.02
22241;BME280;11289;52.524;13.694;2023-05-12T02:36:29;101165.81;;;13.56;50.29
22241;BME280;11289;52.524;13.694;2023-05-12T02:38:59;101176.94;;;13.65;50.40
22241;BME280;11289;52.524;13.694;2023-05-12T02:41:25;101160.81;;;13.49;50.56
22241;BME280;11289;52.524;13.694;2023-05-12T02:43:54;101162.63;;;13.45;50.53
22241;BME280;11289;52.524;13.694;2023-05-12T02:46:25;101176.69;;;13.49;50.37
22241;BME280;11289;52.524;13.694;2023-05-12T02:48:53;101149.53;;;13.37;50.52
22241;BME280;11289;52.524;13.694;2023-05-12T02:51:19;101165.78;;;13.35;50.80
22241;BME280;11289;52.524;13.694;2023-05-12T02:53:45;101170.84;;;13.33;50.82
22241;BME280;11289;52.524;13.694;2023-05-12T02:56:11;101150.91;;;13.22;51.21
22241;BME280;11289;52.524;13.694;2023-05-12T02:58:37;101157.84;;;13.16;51.31
22241;BME280;11289;52.524;13.694;2023-05-12T03:01:04;101140.81;;;13.09;51.17
22241;BME280;11289;52.524;13.694;2023-05-12T03:03:30;101138.19;;;13.03;51.27
22241;BME280;11289;52.524;13.694;2023-05-12T03:05:56;101166.00;;;13.21;51.47
22241;BME280;11289;52.524;13.694;2023-05-12T03:08:23;101149.66;;;13.11;51.40
22241;BME280;11289;52.524;13.694;2023-05-12T03:10:49;101149.16;;;13.09;51.17
22241;BME280;11289;52.524;13.694;2023-05-12T03:13:15;101157.19;;;13.10;51.18
22241;BME280;11289;52.524;13.694;2023-05-12T03:15:41;101177.34;;;13.16;51.62
22241;BME280;11289;52.524;13.694;2023-05-12T03:18:07;101153.28;;;13.02;51.64
22241;BME280;11289;52.524;13.694;2023-05-12T03:20:33;101176.03;;;13.13;51.51
22241;BME280;11289;52.524;13.694;2023-05-12T03:22:59;101151.38;;;12.94;51.68
22241;BME280;11289;52.524;13.694;2023-05-12T03:25:27;101149.38;;;12.95;51.69
22241;BME280;11289;52.524;13.694;2023-05-12T03:27:53;101152.69;;;12.88;51.67
22241;BME280;11289;52.524;13.694;2023-05-12T03:30:18;101176.22;;;13.08;51.65
22241;BME280;11289;52.524;13.694;2023-05-12T03:32:44;101172.81;;;12.94;52.15
22241;BME280;11289;52.524;13.694;2023-05-12T03:35:11;101172.34;;;12.92;52.20
22241;BME280;11289;52.524;13.694;2023-05-12T03:37:37;101192.00;;;12.95;52.27
22241;BME280;11289;52.524;13.694;2023-05-12T03:40:03;101185.28;;;12.96;52.26
22241;BME280;11289;52.524;13.694;2023-05-12T03:42:29;101177.75;;;12.88;52.26
22241;BME280;11289;52.524;13.694;2023-05-12T03:44:55;101189.72;;;12.97;52.34
22241;BME280;11289;52.524;13.694;2023-05-12T03:47:21;101188.41;;;12.95;52.47
22241;BME280;11289;52.524;13.694;2023-05-12T03:49:47;101189.41;;;12.90;52.62
22241;BME280;11289;52.524;13.694;2023-05-12T03:52:13;101193.34;;;12.89;52.85
22241;BME280;11289;52.524;13.694;2023-05-12T03:54:39;101196.63;;;12.91;52.48
22241;BME280;11289;52.524;13.694;2023-05-12T03:57:05;101197.25;;;12.88;52.54
22241;BME280;11289;52.524;13.694;2023-05-12T03:59:31;101194.81;;;12.86;52.59
22241;BME280;11289;52.524;13.694;2023-05-12T04:01:57;101204.47;;;12.89;52.59
22241;BME280;11289;52.524;13.694;2023-05-12T04:04:23;101205.63;;;12.88;52.86
22241;BME280;11289;52.524;13.694;2023-05-12T04:06:49;101204.66;;;12.84;52.63
22241;BME280;11289;52.524;13.694;2023-05-12T04:09:15;101209.06;;;12.85;52.98
22241;BME280;11289;52.524;13.694;2023-05-12T04:11:41;101206.16;;;12.81;53.14
22241;BME280;11289;52.524;13.694;2023-05-12T04:14:08;101209.06;;;12.85;53.25
22241;BME280;11289;52.524;13.694;2023-05-12T04:16:34;101212.19;;;12.83;53.38
22241;BME280;11289;52.524;13.694;2023-05-12T04:19:03;101206.16;;;12.81;53.34
22241;BME280;11289;52.524;13.694;2023-05-12T04:21:29;101214.31;;;12.86;53.67
22241;BME280;11289;52.524;13.694;2023-05-12T04:23:56;101214.31;;;12.86;53.91
22241;BME280;11289;52.524;13.694;2023-05-12T04:26:22;101206.47;;;12.88;53.37
22241;BME280;11289;52.524;13.694;2023-05-12T04:28:48;101211.19;;;12.88;53.35
22241;BME280;11289;52.524;13.694;2023-05-12T04:31:14;101219.22;;;12.98;53.43
22241;BME280;11289;52.524;13.694;2023-05-12T04:33:40;101218.56;;;13.01;53.17
22241;BME280;11289;52.524;13.694;2023-05-12T04:36:06;101218.69;;;13.05;53.09
22241;BME280;11289;52.524;13.694;2023-05-12T04:38:32;101217.38;;;13.02;53.17
22241;BME280;11289;52.524;13.694;2023-05-12T04:40:59;101207.22;;;13.06;53.04
22241;BME280;11289;52.524;13.694;2023-05-12T04:43:25;101223.91;;;13.15;53.24
22241;BME280;11289;52.524;13.694;2023-05-12T04:45:52;101222.13;;;13.11;53.29
22241;BME280;11289;52.524;13.694;2023-05-12T04:48:20;101221.44;;;13.14;53.00
22241;BME280;11289;52.524;13.694;2023-05-12T04:50:48;101230.63;;;13.23;52.89
22241;BME280;11289;52.524;13.694;2023-05-12T04:53:15;101224.72;;;13.24;52.64
22241;BME280;11289;52.524;13.694;2023-05-12T04:55:41;101228.97;;;13.22;52.47
22241;BME280;11289;52.524;13.694;2023-05-12T04:58:13;101228.97;;;13.22;52.46
22241;BME280;11289;52.524;13.694;2023-05-12T05:00:39;101225.84;;;13.23;52.63
22241;BME280;11289;52.524;13.694;2023-05-12T05:03:05;101234.97;;;13.33;52.71
22241;BME280;11289;52.524;13.694;2023-05-12T05:05:31;101236.31;;;13.35;52.71
22241;BME280;11289;52.524;13.694;2023-05-12T05:07:57;101221.38;;;13.31;52.66
22241;BME280;11289;52.524;13.694;2023-05-12T05:10:23;101243.34;;;13.41;52.92
22241;BME280;11289;52.524;13.694;2023-05-12T05:12:49;101249.09;;;13.45;52.33
22241;BME280;11289;52.524;13.694;2023-05-12T05:15:15;101245.97;;;13.47;52.31
22241;BME280;11289;52.524;13.694;2023-05-12T05:17:41;101248.25;;;13.45;52.33
22241;BME280;11289;52.524;13.694;2023-05-12T05:20:08;101244.31;;;13.46;52.88
22241;BME280;11289;52.524;13.694;2023-05-12T05:22:35;101250.53;;;13.51;52.75
22241;BME280;11289;52.524;13.694;2023-05-12T05:25:03;101247.75;;;13.51;52.09
22241;BME280;11289;52.524;13.694;2023-05-12T05:27:29;101252.81;;;13.58;51.96
22241;BME280;11289;52.524;13.694;2023-05-12T05:29:55;101257.03;;;13.64;52.38
22241;BME280;11289;52.524;13.694;2023-05-12T05:32:21;101253.09;;;13.65;52.09
22241;BME280;11289;52.524;13.694;2023-05-12T05:34:47;101252.72;;;13.75;52.27
22241;BME280;11289;52.524;13.694;2023-05-12T05:37:13;101246.44;;;13.79;51.88
22241;BME280;11289;52.524;13.694;2023-05-12T05:39:39;101249.03;;;13.84;51.75
22241;BME280;11289;52.524;13.694;2023-05-12T05:42:05;101257.00;;;13.94;51.56
22241;BME280;11289;52.524;13.694;2023-05-12T05:44:31;101253.97;;;14.08;51.20
22241;BME280;11289;52.524;13.694;2023-05-12T05:46:57;101259.09;;;14.27;51.17
22241;BME280;11289;52.524;13.694;2023-05-12T05:49:23;101253.69;;;14.43;50.15
22241;BME280;11289;52.524;13.694;2023-05-12T05:51:49;101263.72;;;14.65;49.85
22241;BME280;11289;52.524;13.694;2023-05-12T05:54:15;101262.75;;;14.82;49.63
22241;BME280;11289;52.524;13.694;2023-05-12T05:56:41;101272.00;;;15.07;49.45
22241;BME280;11289;52.524;13.694;2023-05-12T05:59:07;101272.75;;;15.29;48.03
22241;BME280;11289;52.524;13.694;2023-05-12T06:01:33;101271.53;;;15.51;47.99
22241;BME280;11289;52.524;13.694;2023-05-12T06:03:59;101276.09;;;15.80;47.85
22241;BME280;11289;52.524;13.694;2023-05-12T06:06:25;101280.84;;;16.05;46.67
22241;BME280;11289;52.524;13.694;2023-05-12T06:08:51;101282.56;;;16.34;46.17
22241;BME280;11289;52.524;13.694;2023-05-12T06:11:17;101281.84;;;16.65;45.42
22241;BME280;11289;52.524;13.694;2023-05-12T06:13:43;101268.44;;;16.87;44.94
22241;BME280;11289;52.524;13.694;2023-05-12T06:16:09;101262.97;;;16.91;44.48
22241;BME280;11289;52.524;13.694;2023-05-12T06:18:35;101281.03;;;17.21;43.95
22241;BME280;11289;52.524;13.694;2023-05-12T06:21:03;101276.78;;;17.44;43.62
22241;BME280;11289;52.524;13.694;2023-05-12T06:23:29;101277.44;;;17.69;43.06
22241;BME280;11289;52.524;13.694;2023-05-12T06:25:55;101282.00;;;17.77;42.64
22241;BME280;11289;52.524;13.694;2023-05-12T06:28:21;101291.72;;;17.96;43.17
22241;BME280;11289;52.524;13.694;2023-05-12T06:30:47;101284.22;;;18.19;42.25
22241;BME280;11289;52.524;13.694;2023-05-12T06:33:13;101297.94;;;18.40;41.90
22241;BME280;11289;52.524;13.694;2023-05-12T06:35:39;101289.72;;;18.51;41.00
22241;BME280;11289;52.524;13.694;2023-05-12T06:38:05;101285.91;;;18.59;41.33
22241;BME280;11289;52.524;13.694;2023-05-12T06:40:32;101297.59;;;18.81;40.98
22241;BME280;11289;52.524;13.694;2023-05-12T06:42:58;101284.50;;;18.89;41.28
22241;BME280;11289;52.524;13.694;2023-05-12T06:45:24;101291.66;;;19.06;40.76
22241;BME280;11289;52.524;13.694;2023-05-12T06:47:50;101292.44;;;19.26;40.39
22241;BME280;11289;52.524;13.694;2023-05-12T06:50:16;101287.19;;;19.47;39.75
22241;BME280;11289;52.524;13.694;2023-05-12T06:52:42;101291.59;;;19.72;39.69
22241;BME280;11289;52.524;13.694;2023-05-12T06:55:08;101284.16;;;19.83;38.92
22241;BME280;11289;52.524;13.694;2023-05-12T06:57:34;101289.03;;;19.86;39.23
22241;BME280;11289;52.524;13.694;2023-05-12T07:00:00;101296.56;;;20.05;38.76
22241;BME280;11289;52.524;13.694;2023-05-12T07:02:28;101303.34;;;20.27;38.55
22241;BME280;11289;52.524;13.694;2023-05-12T07:04:55;101303.44;;;20.34;37.68
22241;BME280;11289;52.524;13.694;2023-05-12T07:07:21;101295.34;;;20.33;37.48
22241;BME280;11289;52.524;13.694;2023-05-12T07:09:47;101293.03;;;20.39;36.97
22241;BME280;11289;52.524;13.694;2023-05-12T07:12:13;101298.84;;;20.53;37.04
22241;BME280;11289;52.524;13.694;2023-05-12T07:14:39;101300.88;;;20.52;36.71
22241;BME280;11289;52.524;13.694;2023-05-12T07:17:05;101305.03;;;20.62;36.92
22241;BME280;11289;52.524;13.694;2023-05-12T07:19:31;101295.22;;;20.83;36.57
22241;BME280;11289;52.524;13.694;2023-05-12T07:21:57;101296.34;;;21.09;36.64
22241;BME280;11289;52.524;13.694;2023-05-12T07:24:23;101301.41;;;21.33;36.62
22241;BME280;11289;52.524;13.694;2023-05-12T07:26:50;101295.97;;;21.55;36.53
22241;BME280;11289;52.524;13.694;2023-05-12T07:29:16;101296.22;;;21.84;35.64
22241;BME280;11289;52.524;13.694;2023-05-12T07:31:42;101305.28;;;22.07;34.91
22241;BME280;11289;52.524;13.694;2023-05-12T07:34:08;101295.56;;;22.08;35.12
22241;BME280;11289;52.524;13.694;2023-05-12T07:36:34;101291.59;;;22.17;34.32
22241;BME280;11289;52.524;13.694;2023-05-12T07:39:00;101286.88;;;22.35;34.87
22241;BME280;11289;52.524;13.694;2023-05-12T07:41:26;101286.47;;;22.37;33.53
22241;BME280;11289;52.524;13.694;2023-05-12T07:43:52;101294.13;;;22.36;34.22
22241;BME280;11289;52.524;13.694;2023-05-12T07:46:18;101284.16;;;22.60;33.69
22241;BME280;11289;52.524;13.694;2023-05-12T07:48:44;101292.31;;;22.76;33.16
22241;BME280;11289;52.524;13.694;2023-05-12T07:51:10;101284.91;;;22.47;34.53
22241;BME280;11289;52.524;13.694;2023-05-12T07:53:36;101294.75;;;22.82;33.90
22241;BME280;11289;52.524;13.694;2023-05-12T07:56:02;101293.25;;;23.20;32.89
22241;BME280;11289;52.524;13.694;2023-05-12T07:58:28;101293.69;;;23.29;32.75
22241;BME280;11289;52.524;13.694;2023-05-12T08:00:54;101306.66;;;23.67;32.02
22241;BME280;11289;52.524;13.694;2023-05-12T08:03:23;101294.91;;;23.72;30.99
22241;BME280;11289;52.524;13.694;2023-05-12T08:05:49;101299.78;;;23.93;30.51
22241;BME280;11289;52.524;13.694;2023-05-12T08:08:15;101292.03;;;24.19;30.68
22241;BME280;11289;52.524;13.694;2023-05-12T08:10:42;101303.34;;;24.33;30.46
22241;BME280;11289;52.524;13.694;2023-05-12T08:13:09;101304.16;;;24.37;30.02
22241;BME280;11289;52.524;13.694;2023-05-12T08:15:35;101291.16;;;24.43;29.98
22241;BME280;11289;52.524;13.694;2023-05-12T08:18:01;101292.72;;;24.66;30.24
22241;BME280;11289;52.524;13.694;2023-05-12T08:20:27;101295.47;;;24.84;30.14
22241;BME280;11289;52.524;13.694;2023-05-12T08:22:53;101292.94;;;25.04;30.24
22241;BME280;11289;52.524;13.694;2023-05-12T08:25:19;101295.72;;;25.11;29.45
22241;BME280;11289;52.524;13.694;2023-05-12T08:27:46;101300.56;;;25.14;28.78
22241;BME280;11289;52.524;13.694;2023-05-12T08:30:12;101298.91;;;25.20;28.54
22241;BME280;11289;52.524;13.694;2023-05-12T08:32:38;101299.69;;;25.21;27.57
22241;BME280;11289;52.524;13.694;2023-05-12T08:35:04;101294.53;;;25.05;27.62
22241;BME280;11289;52.524;13.694;2023-05-12T08:37:31;101289.16;;;25.18;27.23
22241;BME280;11289;52.524;13.694;2023-05-12T08:39:57;101302.97;;;25.19;27.49
22241;BME280;11289;52.524;13.694;2023-05-12T08:44:56;101297.28;;;25.19;27.49
22241;BME280;11289;52.524;13.694;2023-05-12T08:47:24;101303.25;;;25.40;26.79
22241;BME280;11289;52.524;13.694;2023-05-12T08:50:09;101303.09;;;25.61;26.33
22241;BME280;11289;52.524;13.694;2023-05-12T08:52:36;101303.34;;;25.81;26.55
22241;BME280;11289;52.524;13.694;2023-05-12T08:55:03;101297.94;;;25.49;25.80
22241;BME280;11289;52.524;13.694;2023-05-12T08:57:30;101293.72;;;25.64;26.25
22241;BME280;11289;52.524;13.694;2023-05-12T08:59:56;101301.78;;;25.73;26.02
22241;BME280;11289;52.524;13.694;2023-05-12T09:02:24;101294.25;;;25.97;25.60
22241;BME280;11289;52.524;13.694;2023-05-12T09:04:51;101281.91;;;26.11;25.88
22241;BME280;11289;52.524;13.694;2023-05-12T09:07:18;101286.56;;;26.36;24.98
22241;BME280;11289;52.524;13.694;2023-05-12T09:09:46;101286.38;;;26.16;24.89
22241;BME280;11289;52.524;13.694;2023-05-12T09:12:15;101281.03;;;26.21;25.03
22241;BME280;11289;52.524;13.694;2023-05-12T09:14:44;101291.06;;;26.33;24.06
22241;BME280;11289;52.524;13.694;2023-05-12T09:17:11;101286.59;;;26.32;22.91
22241;BME280;11289;52.524;13.694;2023-05-12T09:19:38;101283.13;;;26.14;23.53
22241;BME280;11289;52.524;13.694;2023-05-12T09:22:04;101288.19;;;26.33;23.98
22241;BME280;11289;52.524;13.694;2023-05-12T09:24:35;101285.47;;;26.22;23.92
22241;BME280;11289;52.524;13.694;2023-05-12T09:27:02;101274.94;;;26.19;24.08
22241;BME280;11289;52.524;13.694;2023-05-12T09:29:29;101279.25;;;26.31;24.17
22241;BME280;11289;52.524;13.694;2023-05-12T09:31:56;101276.06;;;26.29;23.41
22241;BME280;11289;52.524;13.694;2023-05-12T09:34:27;101286.00;;;26.48;23.39
22241;BME280;11289;52.524;13.694;2023-05-12T09:37:00;101277.72;;;26.57;23.53
22241;BME280;11289;52.524;13.694;2023-05-12T09:39:27;101289.28;;;26.78;23.37
22241;BME280;11289;52.524;13.694;2023-05-12T09:41:54;101279.25;;;26.97;23.17
22241;BME280;11289;52.524;13.694;2023-05-12T09:44:21;101272.06;;;26.88;23.62
22241;BME280;11289;52.524;13.694;2023-05-12T09:46:48;101273.53;;;27.00;23.65
22241;BME280;11289;52.524;13.694;2023-05-12T09:49:21;101279.06;;;27.11;22.50
22241;BME280;11289;52.524;13.694;2023-05-12T09:51:51;101287.44;;;26.95;22.55
22241;BME280;11289;52.524;13.694;2023-05-12T09:54:25;101280.06;;;27.24;22.95
22241;BME280;11289;52.524;13.694;2023-05-12T09:56:51;101281.53;;;27.09;22.76
22241;BME280;11289;52.524;13.694;2023-05-12T09:59:18;101270.25;;;27.02;22.13
22241;BME280;11289;52.524;13.694;2023-05-12T10:01:46;101266.19;;;27.03;22.17
22241;BME280;11289;52.524;13.694;2023-05-12T10:04:12;101277.47;;;27.10;21.85
22241;BME280;11289;52.524;13.694;2023-05-12T10:06:40;101276.59;;;27.13;21.60
22241;BME280;11289;52.524;13.694;2023-05-12T10:09:15;101284.97;;;26.97;21.91
22241;BME280;11289;52.524;13.694;2023-05-12T10:11:45;101278.09;;;26.94;22.09
22241;BME280;11289;52.524;13.694;2023-05-12T10:14:12;101277.56;;;26.72;22.55
22241;BME280;11289;52.524;13.694;2023-05-12T10:16:39;101270.34;;;26.95;22.40
22241;BME280;11289;52.524;13.694;2023-05-12T10:19:07;101259.06;;;27.15;22.54
22241;BME280;11289;52.524;13.694;2023-05-12T10:21:35;101268.88;;;27.41;21.85
22241;BME280;11289;52.524;13.694;2023-05-12T10:24:03;101273.16;;;27.53;22.23
22241;BME280;11289;52.524;13.694;2023-05-12T10:26:33;101258.94;;;27.49;22.10
22241;BME280;11289;52.524;13.694;2023-05-12T10:29:00;101265.28;;;27.84;22.21
22241;BME280;11289;52.524;13.694;2023-05-12T10:31:26;101257.88;;;27.87;22.17
22241;BME280;11289;52.524;13.694;2023-05-12T10:34:00;101275.19;;;27.76;22.03
22241;BME280;11289;52.524;13.694;2023-05-12T10:36:27;101271.00;;;28.04;22.20
22241;BME280;11289;52.524;13.694;2023-05-12T10:38:54;101255.88;;;28.47;21.66
22241;BME280;11289;52.524;13.694;2023-05-12T10:41:31;101266.47;;;28.87;21.48
22241;BME280;11289;52.524;13.694;2023-05-12T10:43:57;101273.91;;;29.01;20.82
22241;BME280;11289;52.524;13.694;2023-05-12T10:46:23;101255.19;;;29.16;21.24
22241;BME280;11289;52.524;13.694;2023-05-12T10:51:28;101258.63;;;28.91;21.00
22241;BME280;11289;52.524;13.694;2023-05-12T10:54:02;101260.41;;;29.01;21.06
22241;BME280;11289;52.524;13.694;2023-05-12T10:59:18;101253.84;;;29.21;20.18
22241;BME280;11289;52.524;13.694;2023-05-12T11:04:55;101253.47;;;29.03;20.94
22241;BME280;11289;52.524;13.694;2023-05-12T11:07:21;101248.91;;;29.05;21.27
22241;BME280;11289;52.524;13.694;2023-05-12T11:09:48;101244.81;;;29.06;20.95
22241;BME280;11289;52.524;13.694;2023-05-12T11:12:14;101247.63;;;29.43;21.21
22241;BME280;11289;52.524;13.694;2023-05-12T11:14:42;101251.84;;;29.38;20.70
22241;BME280;11289;52.524;13.694;2023-05-12T11:17:09;101256.91;;;29.30;20.88
22241;BME280;11289;52.524;13.694;2023-05-12T11:19:35;101244.59;;;29.50;20.78
22241;BME280;11289;52.524;13.694;2023-05-12T11:22:07;101244.03;;;29.72;20.61
22241;BME280;11289;52.524;13.694;2023-05-12T11:24:34;101255.31;;;29.46;21.52
22241;BME280;11289;52.524;13.694;2023-05-12T11:27:02;101232.44;;;29.29;20.76
22241;BME280;11289;52.524;13.694;2023-05-12T11:29:29;101242.03;;;29.03;20.46
22241;BME280;11289;52.524;13.694;2023-05-12T11:31:55;101247.75;;;29.03;21.51
22241;BME280;11289;52.524;13.694;2023-05-12T11:34:23;101242.00;;;29.23;21.30
22241;BME280;11289;52.524;13.694;2023-05-12T11:36:54;101249.22;;;29.44;20.85
22241;BME280;11289;52.524;13.694;2023-05-12T11:39:23;101250.84;;;29.45;20.74
22241;BME280;11289;52.524;13.694;2023-05-12T11:41:49;101250.13;;;29.41;20.91
22241;BME280;11289;52.524;13.694;2023-05-12T11:44:18;101247.06;;;29.48;20.22
22241;BME280;11289;52.524;13.694;2023-05-12T11:47:04;101264.50;;;29.53;19.93
22241;BME280;11289;52.524;13.694;2023-05-12T11:52:12;101252.34;;;29.49;20.65
22241;BME280;11289;52.524;13.694;2023-05-12T11:54:39;101263.41;;;29.97;20.21
22241;BME280;11289;52.524;13.694;2023-05-12T11:57:12;101257.16;;;29.85;19.73
22241;BME280;11289;52.524;13.694;2023-05-12T11:59:38;101256.00;;;29.33;20.06
22241;BME280;11289;52.524;13.694;2023-05-12T12:02:04;101248.47;;;28.90;20.83
22241;BME280;11289;52.524;13.694;2023-05-12T12:04:38;101258.50;;;28.78;20.64
22241;BME280;11289;52.524;13.694;2023-05-12T12:07:08;101263.84;;;29.13;20.49
22241;BME280;11289;52.524;13.694;2023-05-12T12:09:39;101261.75;;;28.80;20.11
22241;BME280;11289;52.524;13.694;2023-05-12T12:12:09;101261.84;;;28.93;21.23
22241;BME280;11289;52.524;13.694;2023-05-12T12:14:36;101255.50;;;29.22;20.76
22241;BME280;11289;52.524;13.694;2023-05-12T12:17:03;101251.81;;;29.55;20.45
22241;BME280;11289;52.524;13.694;2023-05-12T12:19:29;101257.31;;;29.78;19.94
22241;BME280;11289;52.524;13.694;2023-05-12T12:21:58;101248.84;;;29.75;20.33
22241;BME280;11289;52.524;13.694;2023-05-12T12:24:24;101260.78;;;30.02;19.84
22241;BME280;11289;52.524;13.694;2023-05-12T12:26:51;101245.44;;;29.96;19.79
22241;BME280;11289;52.524;13.694;2023-05-12T12:29:17;101252.00;;;30.10;18.65
22241;BME280;11289;52.524;13.694;2023-05-12T12:31:43;101246.81;;;30.04;18.86
22241;BME280;11289;52.524;13.694;2023-05-12T12:34:09;101257.16;;;30.15;18.53
22241;BME280;11289;52.524;13.694;2023-05-12T12:36:35;101246.09;;;29.88;19.00
22241;BME280;11289;52.524;13.694;2023-05-12T12:39:02;101247.25;;;29.24;18.82
22241;BME280;11289;52.524;13.694;2023-05-12T12:41:28;101252.72;;;28.82;19.80
22241;BME280;11289;52.524;13.694;2023-05-12T12:43:54;101260.81;;;29.04;20.00
22241;BME280;11289;52.524;13.694;2023-05-12T12:46:20;101250.81;;;29.12;19.26
22241;BME280;11289;52.524;13.694;2023-05-12T12:48:46;101245.78;;;29.16;19.29
22241;BME280;11289;52.524;13.694;2023-05-12T12:51:12;101248.56;;;29.20;19.95